Time;durP1;ratioP1;P1;durP2;ratioP2;P2;SDS_P1;SDS_P2;PMS_P1;PMS_P2;Temp;Humidity;BMP_temperature;BMP_pressure;BME280_temperature;BME280_humidity;BME280_pressure;Samples;Min_cycle;Max_cycle;Signal;HPM_P1;HPM_P2
2022/12/06 00:01:17;;;;;;;9.10;3.47;;;;;;;-143.48;91.03;118439.88;5036393;28;20451;-63
2022/12/06 00:03:45;;;;;;;8.88;3.33;;;;;;;-143.48;91.41;118439.88;5035018;28;20087;-64
2022/12/06 00:06:13;;;;;;;10.80;3.85;;;;;;;-143.48;91.50;118439.88;5036583;28;20048;-63
2022/12/06 00:08:39;;;;;;;15.38;4.20;;;;;;;-143.48;91.35;118439.88;5035050;28;20084;-63
2022/12/06 00:11:10;;;;;;;13.07;3.83;;;;;;;-143.48;91.28;118439.88;5036307;28;20104;-62
2022/12/06 00:13:37;;;;;;;13.95;3.60;;;;;;;-143.48;91.24;118439.88;5036228;28;20033;-62
2022/12/06 00:16:05;;;;;;;10.77;3.47;;;;;;;-143.48;91.06;118439.88;5034876;28;20029;-63
2022/12/06 00:18:35;;;;;;;20.15;3.95;;;;;;;-143.48;91.38;118439.88;5036259;28;20067;-63
2022/12/06 00:21:09;;;;;;;11.13;3.55;;;;;;;-143.48;90.89;118439.88;5036192;28;20109;-63
2022/12/06 00:23:37;;;;;;;8.90;3.58;;;;;;;-143.48;90.98;118439.88;5035975;28;20026;-65
2022/12/06 00:26:02;;;;;;;8.40;3.47;;;;;;;-143.48;91.60;118439.88;5036377;28;20382;-63
2022/12/06 00:28:27;;;;;;;11.98;3.28;;;;;;;-143.48;91.39;118439.88;5036020;28;20022;-63
2022/12/06 00:30:57;;;;;;;10.88;3.40;;;;;;;-143.48;91.48;118439.88;5034754;28;20032;-66
2022/12/06 00:33:23;;;;;;;11.10;3.58;;;;;;;-143.48;90.81;118439.88;5034636;28;20025;-64
2022/12/06 00:35:58;;;;;;;11.10;3.30;;;;;;;-143.48;90.83;118439.88;5034092;28;20117;-63
2022/12/06 00:38:24;;;;;;;7.95;2.90;;;;;;;-143.48;90.95;118439.88;5035672;28;20025;-63
2022/12/06 00:40:56;;;;;;;8.20;3.00;;;;;;;-143.48;91.31;118439.88;5035835;28;20025;-64
2022/12/06 00:43:21;;;;;;;8.50;3.40;;;;;;;-143.48;91.35;118439.88;5035792;28;20029;-64
2022/12/06 00:45:47;;;;;;;10.00;3.40;;;;;;;-143.48;91.83;118439.88;5034342;28;20092;-64
2022/12/06 00:48:12;;;;;;;9.90;3.28;;;;;;;-143.48;91.79;118439.88;5035693;28;20048;-64
2022/12/06 00:50:38;;;;;;;12.77;3.28;;;;;;;-143.48;91.23;118439.88;5032855;28;20392;-63
2022/12/06 00:53:03;;;;;;;10.15;2.85;;;;;;;-143.48;91.20;118439.88;5032146;28;20021;-65
2022/12/06 00:55:28;;;;;;;7.97;3.30;;;;;;;-143.48;91.25;118439.88;5033432;28;20053;-63
2022/12/06 00:57:53;;;;;;;10.00;3.17;;;;;;;-143.48;91.05;118439.88;5033779;28;20025;-66
2022/12/06 01:00:19;;;;;;;11.90;3.30;;;;;;;-143.48;91.11;118439.88;5033515;28;20167;-65
2022/12/06 01:02:44;;;;;;;9.13;3.20;;;;;;;-143.48;91.38;118439.88;5032154;28;20060;-66
2022/12/06 01:05:10;;;;;;;16.02;3.42;;;;;;;-143.48;91.09;118439.88;5033844;28;20108;-63
2022/12/06 01:07:35;;;;;;;10.20;3.10;;;;;;;-143.48;91.01;118439.88;5035239;28;20082;-63
2022/12/06 01:10:00;;;;;;;13.63;3.00;;;;;;;-143.48;90.98;118439.88;5035335;28;20103;-63
2022/12/06 01:12:26;;;;;;;9.45;2.88;;;;;;;-143.48;90.87;118439.88;5035094;28;20488;-63
2022/12/06 01:14:51;;;;;;;6.88;2.78;;;;;;;-143.48;90.88;118439.88;5035188;28;20033;-63
2022/12/06 01:17:16;;;;;;;11.60;3.25;;;;;;;-143.48;91.30;118439.88;5035146;28;20037;-63
2022/12/06 01:19:42;;;;;;;11.77;3.20;;;;;;;-143.48;91.21;118439.88;5034941;28;20021;-63
2022/12/06 01:22:07;;;;;;;9.00;3.05;;;;;;;-143.48;91.25;118439.88;5033710;28;20025;-65
2022/12/06 01:24:32;;;;;;;9.07;3.10;;;;;;;-143.48;91.15;118439.88;5034809;28;20453;-64
2022/12/06 01:26:57;;;;;;;9.63;3.30;;;;;;;-143.48;91.11;118439.88;5035019;28;20039;-65
2022/12/06 01:29:23;;;;;;;9.75;3.05;;;;;;;-143.48;91.36;118439.88;5034772;28;20025;-63
2022/12/06 01:31:48;;;;;;;9.55;2.58;;;;;;;-143.48;91.10;118439.88;5034853;28;20021;-64
2022/12/06 01:34:16;;;;;;;13.80;3.03;;;;;;;-143.48;90.74;118439.88;5034775;28;20039;-64
2022/12/06 01:36:42;;;;;;;8.98;2.53;;;;;;;-143.48;91.10;118439.88;5034948;28;20025;-64
2022/12/06 01:39:09;;;;;;;10.98;2.75;;;;;;;-143.48;90.87;118439.88;5034554;28;20104;-64
2022/12/06 01:41:36;;;;;;;10.20;3.20;;;;;;;-143.48;91.33;118439.88;5034862;28;20584;-64
2022/12/06 01:44:02;;;;;;;7.15;2.55;;;;;;;-143.48;90.98;118439.88;5034588;28;20053;-64
2022/12/06 01:46:37;;;;;;;8.13;2.67;;;;;;;-143.48;91.23;118439.88;5034784;28;20079;-63
2022/12/06 01:49:12;;;;;;;6.43;2.50;;;;;;;-143.48;91.33;118439.88;5034339;28;20044;-64
2022/12/06 01:51:41;;;;;;;9.63;2.70;;;;;;;-143.48;91.08;118439.88;5034331;28;20481;-63
2022/12/06 01:54:11;;;;;;;8.30;2.40;;;;;;;-143.48;90.68;118439.88;5034443;28;20025;-63
2022/12/06 01:56:38;;;;;;;6.38;2.42;;;;;;;-143.48;91.27;118439.88;5034270;28;20170;-63
2022/12/06 01:59:06;;;;;;;8.10;2.63;;;;;;;-143.48;91.16;118439.88;5034486;28;20025;-63
2022/12/06 02:01:32;;;;;;;8.48;2.78;;;;;;;-143.48;90.95;118439.88;5033053;28;20026;-64
2022/12/06 02:04:00;;;;;;;8.68;2.50;;;;;;;-143.48;91.68;118439.88;5034220;28;20025;-64
2022/12/06 02:06:27;;;;;;;9.02;2.55;;;;;;;-143.48;91.95;118439.88;5034236;28;20099;-64
2022/12/06 02:08:55;;;;;;;8.25;2.70;;;;;;;-143.48;91.61;118439.88;5032796;28;20057;-64
2022/12/06 02:11:20;;;;;;;9.85;2.67;;;;;;;-143.48;91.55;118439.88;5034107;28;20025;-64
2022/12/06 02:13:45;;;;;;;5.40;2.20;;;;;;;-143.48;91.44;118439.88;5034023;28;20029;-63
2022/12/06 02:16:32;;;;;;;7.13;2.40;;;;;;;-143.48;91.38;118439.88;5034083;28;20084;-63
2022/12/06 02:19:20;;;;;;;6.75;2.85;;;;;;;-143.48;91.39;118439.88;5034091;28;20481;-64
2022/12/06 02:21:59;;;;;;;6.80;2.70;;;;;;;-143.48;91.44;118439.88;5033905;28;20036;-65
2022/12/06 02:24:40;;;;;;;7.82;2.50;;;;;;;-143.48;91.70;118439.88;5033880;28;20089;-64
2022/12/06 02:27:15;;;;;;;6.65;2.92;;;;;;;-143.48;91.57;118439.88;5033813;28;20057;-64
2022/12/06 02:30:11;;;;;;;5.72;2.30;;;;;;;-143.48;91.52;118439.88;5033992;28;20025;-64
2022/12/06 02:32:51;;;;;;;6.45;2.30;;;;;;;-143.48;91.49;118439.88;5032298;28;20029;-66
2022/12/06 02:35:27;;;;;;;6.13;2.20;;;;;;;-143.48;91.38;118439.88;5032278;28;20022;-63
2022/12/06 02:38:00;;;;;;;7.65;2.47;;;;;;;-143.48;91.28;118439.88;5033738;28;20120;-63
2022/12/06 02:40:33;;;;;;;6.32;2.00;;;;;;;-143.48;91.83;118439.88;5033632;28;20021;-63
2022/12/06 02:43:09;;;;;;;7.35;2.10;;;;;;;-143.48;91.61;118439.88;5033538;28;20025;-63
2022/12/06 02:45:39;;;;;;;3.72;2.10;;;;;;;-143.48;91.59;118439.88;5033553;28;20108;-63
2022/12/06 02:48:07;;;;;;;6.82;2.10;;;;;;;-143.48;91.26;118439.88;5032656;28;20021;-64
2022/12/06 02:50:37;;;;;;;3.42;2.00;;;;;;;-143.48;90.92;118439.88;5033044;28;20442;-64
2022/12/06 02:53:09;;;;;;;7.07;2.25;;;;;;;-143.48;90.87;118439.88;5033025;28;20515;-63
2022/12/06 02:55:34;;;;;;;6.18;2.15;;;;;;;-143.48;91.13;118439.88;5032677;28;20053;-65
2022/12/06 02:58:00;;;;;;;8.98;2.00;;;;;;;-143.48;90.55;118439.88;5033070;28;20036;-63
2022/12/06 03:00:34;;;;;;;4.55;2.08;;;;;;;-143.48;90.82;118439.88;5031031;28;20164;-64
2022/12/06 03:03:06;;;;;;;4.72;2.00;;;;;;;-143.48;90.80;118439.88;5033421;28;20029;-64
2022/12/06 03:05:38;;;;;;;5.50;1.92;;;;;;;-143.48;90.59;118439.88;5031957;28;20025;-63
2022/12/06 03:08:10;;;;;;;6.90;1.90;;;;;;;-143.48;91.00;118439.88;5033240;28;20107;-64
2022/12/06 03:10:43;;;;;;;6.18;2.40;;;;;;;-143.48;90.89;118439.88;5033462;28;20025;-64
2022/12/06 03:13:36;;;;;;;3.83;1.77;;;;;;;-143.48;91.02;118439.88;5033134;28;20480;-64
2022/12/06 03:16:22;;;;;;;;;;;;;;;-143.48;90.83;118439.88;5033743;28;20186;-63
2022/12/06 03:18:54;;;;;;;4.35;1.73;;;;;;;-143.48;90.50;118439.88;5032743;28;20002;-64
2022/12/06 03:21:28;;;;;;;3.80;1.92;;;;;;;-143.48;90.85;118439.88;5033173;28;20388;-64
2022/12/06 03:23:54;;;;;;;4.03;1.90;;;;;;;-143.48;91.25;118439.88;5031948;28;20473;-63
2022/12/06 03:26:25;;;;;;;8.15;1.90;;;;;;;-143.48;91.00;118439.88;5033018;28;20025;-64
2022/12/06 03:28:54;;;;;;;5.32;1.90;;;;;;;-143.48;90.95;118439.88;5033203;28;20024;-66
2022/12/06 03:31:23;;;;;;;7.15;1.63;;;;;;;-143.48;91.21;118439.88;5033091;28;20048;-64
2022/12/06 03:33:56;;;;;;;5.53;2.00;;;;;;;-143.48;91.20;118439.88;5031768;28;20021;-73
2022/12/06 03:36:24;;;;;;;4.25;2.00;;;;;;;-143.48;91.66;118439.88;5033382;28;20436;-74
2022/12/06 03:38:56;;;;;;;5.50;2.33;;;;;;;-143.48;91.54;118439.88;5033275;28;20389;-73
2022/12/06 03:41:27;;;;;;;7.28;2.30;;;;;;;-143.48;91.33;118439.88;5033207;28;20022;-64
2022/12/06 03:43:53;;;;;;;6.28;1.98;;;;;;;-143.48;91.01;118439.88;5033518;28;20022;-63
2022/12/06 03:46:23;;;;;;;4.80;2.22;;;;;;;-143.48;91.77;118439.88;5031805;28;20538;-64
2022/12/06 03:48:54;;;;;;;8.02;1.98;;;;;;;-143.48;91.10;118439.88;5033047;28;20021;-64
2022/12/06 03:51:27;;;;;;;5.65;2.00;;;;;;;-143.48;91.23;118439.88;5032751;28;20025;-68
2022/12/06 03:53:56;;;;;;;9.77;2.30;;;;;;;-143.48;91.28;118439.88;5032721;28;20109;-68
2022/12/06 03:56:22;;;;;;;4.78;2.15;;;;;;;-143.48;90.92;118439.88;5032892;28;20119;-68
2022/12/06 03:58:47;;;;;;;6.18;2.25;;;;;;;-143.48;90.61;118439.88;5031589;28;20025;-69
2022/12/06 04:01:13;;;;;;;7.65;2.13;;;;;;;-143.48;90.96;118439.88;5031891;28;20021;-73
2022/12/06 04:03:38;;;;;;;7.63;1.98;;;;;;;-143.48;90.87;118439.88;5032677;28;20071;-73
2022/12/06 04:06:05;;;;;;;7.72;2.20;;;;;;;-143.48;91.13;118439.88;5032381;28;20026;-73
2022/12/06 04:08:31;;;;;;;4.22;2.15;;;;;;;-143.48;91.08;118439.88;5032950;28;20033;-74
2022/12/06 04:10:56;;;;;;;11.75;2.33;;;;;;;-143.48;91.91;118439.88;5032298;28;20025;-74
2022/12/06 04:13:22;;;;;;;4.53;1.70;;;;;;;-143.48;91.71;118439.88;5036211;28;20108;-73
2022/12/06 04:15:47;;;;;;;7.22;2.00;;;;;;;-143.48;91.38;118439.88;5035280;28;20028;-74
2022/12/06 04:18:13;;;;;;;13.52;2.33;;;;;;;-143.48;91.05;118439.88;5036492;28;20381;-74
2022/12/06 04:23:36;;;;;;;7.25;2.20;;;;;;;-143.48;90.97;118439.88;5036721;28;20114;-74
2022/12/06 04:26:04;;;;;;;5.35;1.85;;;;;;;-143.48;90.63;118439.88;5036381;28;20032;-73
2022/12/06 04:39:26;;;;;;;7.30;1.60;;;;;;;-143.48;90.67;118439.88;5035941;28;20044;-71
2022/12/06 04:44:36;;;;;;;4.63;1.60;;;;;;;-143.48;90.89;118439.88;5034906;28;20496;-73
2022/12/06 04:47:02;;;;;;;6.63;1.80;;;;;;;-143.48;90.41;118439.88;5034404;28;20064;-71
2022/12/06 04:49:27;;;;;;;6.22;2.08;;;;;;;-143.48;90.62;118439.88;5034265;28;20531;-72
2022/12/06 04:51:54;;;;;;;3.28;1.55;;;;;;;-143.48;90.23;118439.88;5034315;28;20075;-74
2022/12/06 04:54:21;;;;;;;3.95;1.90;;;;;;;-143.48;90.31;118439.88;5032873;28;20091;-73
2022/12/06 04:56:46;;;;;;;4.13;1.80;;;;;;;-143.48;90.25;118439.88;5034948;28;20045;-73
2022/12/06 04:59:12;;;;;;;4.63;1.80;;;;;;;-143.48;90.63;118439.88;5035729;28;20028;-73
2022/12/06 05:01:37;;;;;;;3.10;1.67;;;;;;;-143.48;91.02;118439.88;5035673;28;20096;-73
2022/12/06 05:04:03;;;;;;;3.55;1.80;;;;;;;-143.48;91.72;118439.88;5035752;28;20030;-72
2022/12/06 05:06:28;;;;;;;5.75;2.10;;;;;;;-143.48;92.07;118439.88;5035774;28;20025;-73
2022/12/06 05:08:53;;;;;;;4.43;1.80;;;;;;;-143.48;91.29;118439.88;5035712;28;20392;-73
2022/12/06 05:11:19;;;;;;;7.90;2.00;;;;;;;-143.48;90.72;118439.88;5035763;28;20029;-74
2022/12/06 05:13:44;;;;;;;5.20;2.00;;;;;;;-143.48;90.86;118439.88;5035429;28;20453;-73
2022/12/06 05:16:12;;;;;;;9.02;2.17;;;;;;;-143.48;90.97;118439.88;5035458;28;20479;-73
2022/12/06 05:18:37;;;;;;;6.38;2.47;;;;;;;-143.48;91.39;118439.88;5035425;28;20108;-73
2022/12/06 05:21:14;;;;;;;9.73;1.92;;;;;;;-143.48;91.15;118439.88;5035682;28;20110;-73
2022/12/06 05:23:40;;;;;;;7.50;2.08;;;;;;;-143.48;91.49;118439.88;5034433;28;20100;-65
2022/12/06 05:26:09;;;;;;;6.10;2.50;;;;;;;-143.48;91.30;118439.88;5035456;28;20122;-70
2022/12/06 05:28:34;;;;;;;5.03;2.40;;;;;;;-143.48;91.55;118439.88;5034110;28;20025;-69
2022/12/06 05:31:00;;;;;;;8.07;2.50;;;;;;;-143.48;92.00;118439.88;5035376;28;20087;-70
2022/12/06 05:33:25;;;;;;;6.22;2.20;;;;;;;-143.48;91.71;118439.88;5035059;28;20531;-70
2022/12/06 05:35:51;;;;;;;4.35;2.10;;;;;;;-143.48;91.44;118439.88;5035070;28;20052;-70
2022/12/06 05:38:17;;;;;;;4.88;2.28;;;;;;;-143.48;91.37;118439.88;5035206;28;20063;-70
2022/12/06 05:40:43;;;;;;;8.38;2.47;;;;;;;-143.48;91.28;118439.88;5034059;28;20084;-70
2022/12/06 05:43:09;;;;;;;6.75;2.60;;;;;;;-143.48;91.08;118439.88;5035055;28;20059;-70
2022/12/06 05:45:35;;;;;;;5.47;2.63;;;;;;;-143.48;91.33;118439.88;5035080;28;20060;-70
2022/12/06 05:48:00;;;;;;;5.10;2.35;;;;;;;-143.48;90.99;118439.88;5034843;28;20028;-70
2022/12/06 05:50:26;;;;;;;8.35;2.40;;;;;;;-143.48;91.28;118439.88;5034580;28;20112;-70
2022/12/06 05:52:55;;;;;;;8.00;2.60;;;;;;;-143.48;91.02;118439.88;5034814;28;20064;-70
2022/12/06 05:55:21;;;;;;;4.80;2.40;;;;;;;-143.48;90.40;118439.88;5033287;28;20042;-73
2022/12/06 05:57:46;;;;;;;4.00;2.10;;;;;;;-143.48;90.81;118439.88;5034609;28;20029;-74
2022/12/06 06:00:12;;;;;;;4.95;2.35;;;;;;;-143.48;90.71;118439.88;5034524;28;20377;-73
2022/12/06 06:02:37;;;;;;;3.38;2.22;;;;;;;-143.48;90.81;118439.88;5033270;28;20045;-73
2022/12/06 06:05:03;;;;;;;4.65;1.95;;;;;;;-143.48;90.87;118439.88;5034700;28;20029;-73
2022/12/06 06:07:28;;;;;;;7.47;2.45;;;;;;;-143.48;90.35;118439.88;5035933;28;20029;-67
2022/12/06 06:09:54;;;;;;;6.68;2.17;;;;;;;-143.48;90.12;118439.88;5034323;28;20029;-67
2022/12/06 06:12:20;;;;;;;4.40;2.40;;;;;;;-143.48;90.49;118439.88;5036373;28;20029;-68
2022/12/06 06:14:45;;;;;;;5.78;2.60;;;;;;;-143.48;91.11;118439.88;5046028;28;20029;-71
2022/12/06 06:17:10;;;;;;;5.97;2.55;;;;;;;-143.48;90.74;118439.88;5051614;28;20085;-70
2022/12/06 06:19:36;;;;;;;4.80;2.38;;;;;;;-143.48;90.82;118439.88;5049837;28;20036;-71
2022/12/06 06:22:01;;;;;;;7.35;2.58;;;;;;;-143.48;90.43;118439.88;5052156;28;20032;-68
2022/12/06 06:24:26;;;;;;;5.50;2.30;;;;;;;-143.48;90.92;118439.88;5046294;28;20385;-69
2022/12/06 06:26:52;;;;;;;8.13;2.38;;;;;;;-143.48;91.05;118439.88;5040305;28;20057;-71
2022/12/06 06:29:17;;;;;;;4.88;2.40;;;;;;;-143.48;90.89;118439.88;5033792;28;20448;-70
2022/12/06 06:31:42;;;;;;;4.05;2.30;;;;;;;-143.48;91.02;118439.88;5033714;28;20033;-70
2022/12/06 06:34:07;;;;;;;5.18;2.30;;;;;;;-143.48;91.61;118439.88;5033664;28;20018;-70
2022/12/06 06:36:33;;;;;;;5.43;2.20;;;;;;;-143.48;91.18;118439.88;5034171;28;20032;-70
2022/12/06 06:38:58;;;;;;;3.83;2.15;;;;;;;-143.48;91.08;118439.88;5034015;28;20094;-71
2022/12/06 06:41:23;;;;;;;6.53;2.20;;;;;;;-143.48;91.24;118439.88;5033900;28;20040;-70
2022/12/06 06:43:49;;;;;;;5.68;2.10;;;;;;;-143.48;90.90;118439.88;5034138;28;20465;-71
2022/12/06 06:46:14;;;;;;;3.17;2.22;;;;;;;-143.48;90.84;118439.88;5035323;28;20025;-70
2022/12/06 06:48:40;;;;;;;6.72;2.40;;;;;;;-143.48;90.77;118439.88;5053391;28;20500;-71
2022/12/06 06:51:11;;;;;;;5.90;2.22;;;;;;;-143.48;91.05;118439.88;5050037;28;20103;-71
2022/12/06 06:53:37;;;;;;;6.97;2.40;;;;;;;-143.48;90.56;118439.88;5033831;28;20021;-69
2022/12/06 06:56:04;;;;;;;6.95;2.80;;;;;;;-143.48;90.76;118439.88;5033466;28;20045;-69
2022/12/06 06:58:29;;;;;;;5.93;2.72;;;;;;;-143.48;90.77;118439.88;5037036;28;20026;-70
2022/12/06 07:00:57;;;;;;;6.63;2.88;;;;;;;-143.48;90.93;118439.88;5035842;28;20047;-70
2022/12/06 07:03:23;;;;;;;6.60;3.10;;;;;;;-143.48;91.08;118439.88;5033844;28;20504;-70
2022/12/06 07:06:14;;;;;;;7.78;3.00;;;;;;;-143.48;91.08;118439.88;5033471;28;20361;-70
2022/12/06 07:08:40;;;;;;;7.93;3.13;;;;;;;-143.48;91.11;118439.88;5029669;28;20124;-70
2022/12/06 07:11:07;;;;;;;7.93;3.08;;;;;;;-143.48;90.78;118439.88;5034723;28;20389;-74
2022/12/06 07:13:34;;;;;;;11.82;3.00;;;;;;;-143.48;90.82;118439.88;5032071;28;20021;-63
2022/12/06 07:16:02;;;;;;;4.70;2.53;;;;;;;-143.48;90.56;118439.88;5034518;28;20498;-69
2022/12/06 07:18:28;;;;;;;6.40;3.13;;;;;;;-143.48;90.61;118439.88;5044336;28;20110;-71
2022/12/06 07:20:59;;;;;;;8.32;2.80;;;;;;;-143.48;91.13;118439.88;5033278;28;20053;-71
2022/12/06 07:23:24;;;;;;;5.50;3.08;;;;;;;-143.48;91.12;118439.88;5033523;28;20021;-71
2022/12/06 07:26:08;;;;;;;5.97;3.00;;;;;;;-143.48;91.48;118439.88;5033474;28;20449;-70
2022/12/06 07:28:38;;;;;;;5.75;2.70;;;;;;;-143.48;91.21;118439.88;5033190;28;20053;-70
2022/12/06 07:31:12;;;;;;;7.18;2.88;;;;;;;-143.48;91.62;118439.88;5033538;28;20105;-70
2022/12/06 07:33:39;;;;;;;8.60;2.65;;;;;;;-143.48;90.69;118439.88;5032179;28;20716;-70
2022/12/06 07:36:05;;;;;;;5.82;2.97;;;;;;;-143.48;90.04;118439.88;5033355;28;20033;-70
2022/12/06 07:38:30;;;;;;;6.80;3.28;;;;;;;-143.48;89.86;118439.88;5033246;28;20029;-71
2022/12/06 07:44:59;;;;;;;6.18;3.00;;;;;;;-143.48;90.25;118439.88;5033220;28;20029;-70
2022/12/06 07:46:40;;;;;;;5.15;3.03;;;;;;;-143.48;90.17;118439.88;5035799;28;20449;-75
2022/12/06 07:49:07;;;;;;;9.45;3.10;;;;;;;-143.48;90.03;118439.88;5037132;28;20053;-76
2022/12/06 07:51:32;;;;;;;8.23;3.25;;;;;;;-143.48;90.19;118439.88;5035652;28;20397;-65
2022/12/06 07:53:58;;;;;;;5.20;2.97;;;;;;;-143.48;89.70;118439.88;5037234;28;20026;-64
2022/12/06 07:56:24;;;;;;;8.30;3.10;;;;;;;-143.48;89.26;118439.88;5036689;28;20049;-64
2022/12/06 07:58:49;;;;;;;5.75;3.05;;;;;;;-143.48;89.42;118439.88;5039216;28;20025;-63
2022/12/06 08:01:14;;;;;;;5.50;3.20;;;;;;;-143.48;89.27;118439.88;5036976;28;20017;-64
2022/12/06 08:03:40;;;;;;;7.00;3.03;;;;;;;-143.48;88.94;118439.88;5035684;28;20424;-64
2022/12/06 08:06:07;;;;;;;6.30;3.08;;;;;;;-143.48;89.26;118439.88;5039772;28;20051;-67
2022/12/06 08:08:33;;;;;;;5.88;3.33;;;;;;;-143.48;89.54;118439.88;5019309;28;20447;-63
2022/12/06 08:11:05;;;;;;;8.25;3.42;;;;;;;-143.48;89.80;118439.88;5036588;28;20100;-64
2022/12/06 08:13:32;;;;;;;6.68;3.28;;;;;;;-143.48;89.31;118439.88;5036294;28;20071;-63
2022/12/06 08:15:58;;;;;;;10.13;3.45;;;;;;;-143.48;89.50;118439.88;5036433;28;20132;-63
2022/12/06 08:18:24;;;;;;;8.27;3.63;;;;;;;-143.48;88.71;118439.88;5035347;28;20116;-61
2022/12/06 08:20:51;;;;;;;8.18;3.28;;;;;;;-143.48;88.71;118439.88;5035990;28;20425;-64
2022/12/06 08:23:17;;;;;;;7.50;3.28;;;;;;;-143.48;88.44;118439.88;5034813;28;20014;-61
2022/12/06 08:25:42;;;;;;;7.93;3.58;;;;;;;-143.48;87.85;118439.88;5035964;28;20025;-61
2022/12/06 08:28:08;;;;;;;8.00;3.80;;;;;;;-143.48;87.99;118439.88;5035751;28;20052;-62
2022/12/06 08:30:33;;;;;;;10.20;3.88;;;;;;;-143.48;88.53;118439.88;5037268;28;20539;-63
2022/12/06 08:32:58;;;;;;;17.48;4.28;;;;;;;-143.48;88.72;118439.88;5035783;28;20040;-63
2022/12/06 08:35:24;;;;;;;7.18;3.95;;;;;;;-143.48;87.99;118439.88;5036196;28;20403;-75
2022/12/06 08:37:49;;;;;;;8.68;4.05;;;;;;;-143.48;87.91;118439.88;5036238;28;20026;-74
2022/12/06 08:40:14;;;;;;;8.73;4.32;;;;;;;-143.48;88.33;118439.88;5035026;28;20036;-74
2022/12/06 08:42:42;;;;;;;9.30;4.18;;;;;;;-143.48;88.16;118439.88;5036113;28;20381;-75
2022/12/06 08:45:08;;;;;;;6.63;4.18;;;;;;;-143.48;87.66;118439.88;5034762;28;20022;-74
2022/12/06 08:47:33;;;;;;;7.85;4.07;;;;;;;-143.48;87.59;118439.88;5036223;28;20025;-63
2022/12/06 08:49:58;;;;;;;9.93;4.68;;;;;;;-143.48;87.99;118439.88;5034864;28;20032;-64
2022/12/06 08:52:23;;;;;;;11.98;4.72;;;;;;;-143.48;88.26;118439.88;5035422;28;20029;-63
2022/12/06 08:54:49;;;;;;;12.23;4.53;;;;;;;-143.48;87.73;118439.88;5035333;28;20055;-63
2022/12/06 08:57:14;;;;;;;7.88;4.07;;;;;;;-143.48;86.95;118439.88;5032928;28;20045;-64
2022/12/06 08:59:39;;;;;;;10.57;4.47;;;;;;;-143.48;87.13;118439.88;5035265;28;20017;-65
2022/12/06 09:02:05;;;;;;;7.75;4.15;;;;;;;-143.48;87.27;118439.88;5035376;28;20134;-63
2022/12/06 09:04:31;;;;;;;9.30;4.30;;;;;;;-143.48;87.04;118439.88;5035526;28;20036;-63
2022/12/06 09:06:56;;;;;;;9.98;4.95;;;;;;;-143.48;86.38;118439.88;5034108;28;20140;-63
2022/12/06 09:09:21;;;;;;;9.00;4.80;;;;;;;-143.48;86.16;118439.88;5034634;28;20028;-63
2022/12/06 09:11:48;;;;;;;9.55;4.68;;;;;;;-143.48;86.04;118439.88;5035599;28;20116;-63
2022/12/06 09:14:15;;;;;;;10.20;4.82;;;;;;;-143.48;85.88;118439.88;5035883;28;20057;-69
2022/12/06 09:16:42;;;;;;;8.40;4.50;;;;;;;-143.48;86.16;118439.88;5037465;28;20033;-70
2022/12/06 09:19:08;;;;;;;9.73;5.03;;;;;;;-143.48;86.59;118439.88;5035122;28;20022;-69
2022/12/06 09:21:34;;;;;;;9.55;5.10;;;;;;;-143.48;86.69;118439.88;5036733;28;20108;-70
2022/12/06 09:24:00;;;;;;;11.00;4.90;;;;;;;-143.48;86.45;118439.88;5036808;28;20096;-70
2022/12/06 09:26:26;;;;;;;15.20;5.00;;;;;;;-143.48;86.26;118439.88;5037881;28;20278;-70
2022/12/06 09:28:54;;;;;;;10.05;5.10;;;;;;;-143.48;84.74;118439.88;5035671;28;20029;-70
2022/12/06 09:31:19;;;;;;;11.60;5.88;;;;;;;-143.48;82.95;118439.88;5035946;28;20032;-70
2022/12/06 09:33:45;;;;;;;13.32;5.88;;;;;;;-143.48;81.59;118439.88;5035855;28;20033;-71
2022/12/06 09:36:29;;;;;;;12.10;4.63;;;;;;;-143.48;81.97;118439.88;5037309;28;20113;-70
2022/12/06 09:39:06;;;;;;;8.48;4.25;;;;;;;-143.48;81.36;118439.88;5033357;28;20033;-70
2022/12/06 09:42:01;;;;;;;10.35;4.03;;;;;;;-143.48;83.12;118439.88;5033762;28;20104;-70
2022/12/06 09:44:35;;;;;;;10.00;4.03;;;;;;;-143.48;82.96;118439.88;5033930;28;20021;-70
2022/12/06 09:47:46;;;;;;;11.82;3.78;;;;;;;-143.48;80.69;118439.88;5034047;28;20021;-70
2022/12/06 09:50:35;;;;;;;10.50;3.90;;;;;;;-143.48;80.50;118439.88;5033674;28;20025;-70
2022/12/06 09:53:21;;;;;;;8.23;3.70;;;;;;;-143.48;80.92;118439.88;5034642;28;20540;-69
2022/12/06 09:56:04;;;;;;;14.73;5.13;;;;;;;-143.48;81.34;118439.88;5038406;28;20061;-68
2022/12/06 09:58:48;;;;;;;9.52;4.60;;;;;;;-143.48;80.47;118439.88;5034828;28;20028;-69
2022/12/06 10:01:31;;;;;;;9.77;3.83;;;;;;;-143.48;78.44;118439.88;5035187;28;20026;-74
2022/12/06 10:04:03;;;;;;;12.90;4.05;;;;;;;-143.48;78.38;118439.88;5038178;28;20022;-69
2022/12/06 10:06:48;;;;;;;9.30;4.15;;;;;;;-143.48;76.33;118439.88;5033242;28;20033;-69
2022/12/06 10:09:31;;;;;;;10.98;4.50;;;;;;;-143.48;68.80;118439.88;5034129;28;20100;-69
2022/12/06 10:12:05;;;;;;;9.68;4.00;;;;;;;-143.48;67.28;118439.88;5033051;28;20100;-70
2022/12/06 10:14:52;;;;;;;8.57;3.78;;;;;;;-143.48;60.94;118439.88;5033053;28;20021;-70
2022/12/06 10:17:45;;;;;;;9.75;3.55;;;;;;;-143.48;51.55;118439.88;5034265;28;20104;-70
2022/12/06 10:20:35;;;;;;;10.68;4.22;;;;;;;-143.48;51.05;118439.88;5033428;28;20428;-69
2022/12/06 10:23:06;;;;;;;7.82;4.35;;;;;;;-143.48;62.87;118439.88;5014902;28;20026;-69
2022/12/06 10:25:34;;;;;;;10.98;4.13;;;;;;;-143.48;55.83;118439.88;5046248;28;20053;-74
2022/12/06 10:28:10;;;;;;;8.02;3.80;;;;;;;-143.48;47.90;118439.88;5054928;28;20104;-70
2022/12/06 10:30:46;;;;;;;8.90;3.35;;;;;;;-143.48;41.89;118439.88;5054587;28;20050;-70
2022/12/06 10:33:24;;;;;;;8.32;3.55;;;;;;;-143.48;40.98;118439.88;5055982;28;20013;-70
2022/12/06 10:35:54;;;;;;;9.95;3.28;;;;;;;-143.48;39.67;118439.88;5055550;28;20017;-70
2022/12/06 10:38:23;;;;;;;7.32;3.47;;;;;;;-143.48;50.65;118439.88;5055818;28;20052;-71
2022/12/06 10:41:06;;;;;;;9.02;3.42;;;;;;;-143.48;56.06;118439.88;5052310;28;20034;-68
2022/12/06 10:44:03;;;;;;;8.45;3.45;;;;;;;-143.48;60.95;118439.88;5038783;28;20060;-70
2022/12/06 10:49:37;;;;;;;9.73;3.58;;;;;;;-143.48;59.68;118439.88;5037798;28;20126;-69
2022/12/06 10:52:20;;;;;;;8.15;3.83;;;;;;;-143.48;63.16;118439.88;5036686;28;20100;-69
2022/12/06 10:55:03;;;;;;;7.65;3.30;;;;;;;-143.48;64.27;118439.88;5038103;28;20032;-69
2022/12/06 10:58:29;;;;;;;11.07;3.95;;;;;;;-143.48;71.50;118439.88;5035378;28;20045;-69
2022/12/06 11:01:00;;;;;;;7.82;3.83;;;;;;;-143.48;72.48;118439.88;4955009;29;20094;-68
2022/12/06 11:03:29;;;;;;;6.38;3.80;;;;;;;-143.48;73.71;118439.88;5035104;28;20511;-68
2022/12/06 11:06:14;;;;;;;9.93;3.65;;;;;;;-143.48;74.32;118439.88;5034111;28;20083;-69
2022/12/06 11:09:18;;;;;;;5.65;3.00;;;;;;;-143.48;71.87;118439.88;5032249;28;20108;-69
2022/12/06 11:11:44;;;;;;;10.45;3.70;;;;;;;-143.48;72.40;118439.88;5032602;28;20021;-69
2022/12/06 11:14:48;;;;;;;9.05;3.50;;;;;;;-143.48;70.94;118439.88;5035573;28;20365;-68
2022/12/06 11:17:27;;;;;;;;;;;;;;;-143.48;70.33;118439.88;5029750;28;20040;-68
2022/12/06 11:20:10;;;;;;;9.05;4.18;;;;;;;-143.48;75.87;118439.88;5033544;28;19916;-68
2022/12/06 11:22:44;;;;;;;10.02;3.75;;;;;;;-143.48;72.35;118439.88;5038929;28;20026;-69
2022/12/06 11:25:21;;;;;;;10.07;3.78;;;;;;;-143.48;72.53;118439.88;5038719;28;20029;-68
2022/12/06 11:28:10;;;;;;;7.82;3.58;;;;;;;-143.48;71.62;118439.88;5040002;28;20175;-69
2022/12/06 11:30:36;;;;;;;11.55;3.95;;;;;;;-143.48;75.19;118439.88;5039911;28;20021;-69
2022/12/06 11:33:03;;;;;;;14.43;3.83;;;;;;;-143.48;73.24;118439.88;5039825;28;20033;-69
2022/12/06 11:35:28;;;;;;;8.90;3.92;;;;;;;-143.48;69.37;118439.88;5038082;28;20086;-69
2022/12/06 11:37:59;;;;;;;8.98;3.67;;;;;;;-143.48;66.96;118439.88;5038989;28;20025;-69
2022/12/06 11:40:43;;;;;;;12.55;3.85;;;;;;;-143.48;66.07;118439.88;5038648;28;20481;-69
2022/12/06 11:43:23;;;;;;;6.30;3.30;;;;;;;-143.48;67.26;118439.88;5039526;28;20037;-69